sensor_id;sensor_type;location;lat;lon;timestamp;P1;durP1;ratioP1;P2;durP2;ratioP2
4074;SDS011;2052;53.522;9.806;2024-03-02T00:01:37;27.03;;;14.00;;
4074;SDS011;2052;53.522;9.806;2024-03-02T00:04:05;28.67;;;14.43;;
4074;SDS011;2052;53.522;9.806;2024-03-02T00:06:36;30.07;;;15.70;;
4074;SDS011;2052;53.522;9.806;2024-03-02T00:09:03;29.40;;;14.20;;
4074;SDS011;2052;53.522;9.806;2024-03-02T00:11:29;30.40;;;14.87;;
4074;SDS011;2052;53.522;9.806;2024-03-02T00:13:56;31.80;;;15.03;;
4074;SDS011;2052;53.522;9.806;2024-03-02T00:16:29;28.13;;;13.17;;
4074;SDS011;2052;53.522;9.806;2024-03-02T00:18:58;27.93;;;14.50;;
4074;SDS011;2052;53.522;9.806;2024-03-02T00:21:27;29.07;;;14.57;;
4074;SDS011;2052;53.522;9.806;2024-03-02T00:23:56;30.37;;;14.97;;
4074;SDS011;2052;53.522;9.806;2024-03-02T00:26:23;28.17;;;15.00;;
4074;SDS011;2052;53.522;9.806;2024-03-02T00:28:50;34.70;;;15.40;;
4074;SDS011;2052;53.522;9.806;2024-03-02T00:31:22;33.27;;;16.00;;
4074;SDS011;2052;53.522;9.806;2024-03-02T00:33:50;29.80;;;15.70;;
4074;SDS011;2052;53.522;9.806;2024-03-02T00:36:22;29.73;;;14.57;;
4074;SDS011;2052;53.522;9.806;2024-03-02T00:38:52;34.23;;;16.60;;
4074;SDS011;2052;53.522;9.806;2024-03-02T00:41:21;32.20;;;16.10;;
4074;SDS011;2052;53.522;9.806;2024-03-02T00:43:52;37.43;;;15.60;;
4074;SDS011;2052;53.522;9.806;2024-03-02T00:46:23;30.43;;;15.00;;
4074;SDS011;2052;53.522;9.806;2024-03-02T00:48:54;30.10;;;15.30;;
4074;SDS011;2052;53.522;9.806;2024-03-02T00:51:23;32.63;;;15.83;;
4074;SDS011;2052;53.522;9.806;2024-03-02T00:53:51;32.93;;;16.70;;
4074;SDS011;2052;53.522;9.806;2024-03-02T00:56:20;35.37;;;15.93;;
4074;SDS011;2052;53.522;9.806;2024-03-02T00:58:48;36.90;;;17.07;;
4074;SDS011;2052;53.522;9.806;2024-03-02T01:01:15;34.50;;;16.37;;
4074;SDS011;2052;53.522;9.806;2024-03-02T01:03:42;28.80;;;15.87;;
4074;SDS011;2052;53.522;9.806;2024-03-02T01:06:10;35.80;;;18.60;;
4074;SDS011;2052;53.522;9.806;2024-03-02T01:08:38;35.77;;;17.03;;
4074;SDS011;2052;53.522;9.806;2024-03-02T01:11:04;36.60;;;16.10;;
4074;SDS011;2052;53.522;9.806;2024-03-02T01:13:31;40.00;;;17.20;;
4074;SDS011;2052;53.522;9.806;2024-03-02T01:16:06;38.10;;;17.27;;
4074;SDS011;2052;53.522;9.806;2024-03-02T01:18:33;30.20;;;15.73;;
4074;SDS011;2052;53.522;9.806;2024-03-02T01:20:59;33.57;;;16.20;;
4074;SDS011;2052;53.522;9.806;2024-03-02T01:23:26;35.27;;;16.37;;
4074;SDS011;2052;53.522;9.806;2024-03-02T01:25:54;38.70;;;20.03;;
4074;SDS011;2052;53.522;9.806;2024-03-02T01:28:21;38.37;;;17.03;;
4074;SDS011;2052;53.522;9.806;2024-03-02T01:30:47;37.60;;;18.57;;
4074;SDS011;2052;53.522;9.806;2024-03-02T01:33:14;39.63;;;17.87;;
4074;SDS011;2052;53.522;9.806;2024-03-02T01:35:41;36.37;;;18.83;;
4074;SDS011;2052;53.522;9.806;2024-03-02T01:38:08;41.97;;;18.90;;
4074;SDS011;2052;53.522;9.806;2024-03-02T01:40:35;39.93;;;18.73;;
4074;SDS011;2052;53.522;9.806;2024-03-02T01:43:05;46.10;;;18.83;;
4074;SDS011;2052;53.522;9.806;2024-03-02T01:45:32;45.83;;;18.80;;
4074;SDS011;2052;53.522;9.806;2024-03-02T01:48:00;43.00;;;20.43;;
4074;SDS011;2052;53.522;9.806;2024-03-02T01:50:27;42.00;;;19.43;;
4074;SDS011;2052;53.522;9.806;2024-03-02T01:52:56;42.27;;;19.70;;
4074;SDS011;2052;53.522;9.806;2024-03-02T01:55:23;46.03;;;20.43;;
4074;SDS011;2052;53.522;9.806;2024-03-02T01:57:49;44.97;;;20.47;;
4074;SDS011;2052;53.522;9.806;2024-03-02T02:00:19;45.30;;;19.60;;
4074;SDS011;2052;53.522;9.806;2024-03-02T02:02:46;45.67;;;21.43;;
4074;SDS011;2052;53.522;9.806;2024-03-02T02:05:14;38.20;;;17.87;;
4074;SDS011;2052;53.522;9.806;2024-03-02T02:07:43;47.60;;;19.83;;
4074;SDS011;2052;53.522;9.806;2024-03-02T02:10:10;54.17;;;22.90;;
4074;SDS011;2052;53.522;9.806;2024-03-02T02:12:38;44.50;;;20.97;;
4074;SDS011;2052;53.522;9.806;2024-03-02T02:17:51;48.27;;;20.27;;
4074;SDS011;2052;53.522;9.806;2024-03-02T02:20:18;47.90;;;21.90;;
4074;SDS011;2052;53.522;9.806;2024-03-02T02:25:28;53.87;;;20.80;;
4074;SDS011;2052;53.522;9.806;2024-03-02T02:27:55;46.97;;;20.50;;
4074;SDS011;2052;53.522;9.806;2024-03-02T02:30:24;42.27;;;20.13;;
4074;SDS011;2052;53.522;9.806;2024-03-02T02:32:52;50.40;;;19.67;;
4074;SDS011;2052;53.522;9.806;2024-03-02T02:35:19;46.97;;;21.73;;
4074;SDS011;2052;53.522;9.806;2024-03-02T02:37:46;50.63;;;21.60;;
4074;SDS011;2052;53.522;9.806;2024-03-02T02:40:14;43.00;;;20.67;;
4074;SDS011;2052;53.522;9.806;2024-03-02T02:42:41;50.17;;;21.30;;
4074;SDS011;2052;53.522;9.806;2024-03-02T02:45:08;40.77;;;20.20;;
4074;SDS011;2052;53.522;9.806;2024-03-02T02:47:37;46.00;;;20.87;;
4074;SDS011;2052;53.522;9.806;2024-03-02T02:50:03;47.10;;;20.80;;
4074;SDS011;2052;53.522;9.806;2024-03-02T02:52:31;56.50;;;23.80;;
4074;SDS011;2052;53.522;9.806;2024-03-02T02:55:00;48.90;;;21.40;;
4074;SDS011;2052;53.522;9.806;2024-03-02T02:57:29;41.50;;;21.47;;
4074;SDS011;2052;53.522;9.806;2024-03-02T03:00:00;51.10;;;21.87;;
4074;SDS011;2052;53.522;9.806;2024-03-02T03:02:28;51.83;;;21.07;;
4074;SDS011;2052;53.522;9.806;2024-03-02T03:04:55;43.47;;;21.07;;
4074;SDS011;2052;53.522;9.806;2024-03-02T03:07:22;50.23;;;23.30;;
4074;SDS011;2052;53.522;9.806;2024-03-02T03:09:49;47.40;;;21.83;;
4074;SDS011;2052;53.522;9.806;2024-03-02T03:12:15;52.20;;;21.90;;
4074;SDS011;2052;53.522;9.806;2024-03-02T03:14:45;48.93;;;22.10;;
4074;SDS011;2052;53.522;9.806;2024-03-02T03:17:11;50.53;;;22.30;;
4074;SDS011;2052;53.522;9.806;2024-03-02T03:19:38;52.00;;;21.10;;
4074;SDS011;2052;53.522;9.806;2024-03-02T03:22:04;42.50;;;20.00;;
4074;SDS011;2052;53.522;9.806;2024-03-02T03:24:31;45.93;;;19.27;;
4074;SDS011;2052;53.522;9.806;2024-03-02T03:26:59;47.87;;;22.37;;
4074;SDS011;2052;53.522;9.806;2024-03-02T03:29:25;51.00;;;21.40;;
4074;SDS011;2052;53.522;9.806;2024-03-02T03:31:53;49.83;;;21.83;;
4074;SDS011;2052;53.522;9.806;2024-03-02T03:34:19;51.73;;;21.87;;
4074;SDS011;2052;53.522;9.806;2024-03-02T03:36:46;50.53;;;22.60;;
4074;SDS011;2052;53.522;9.806;2024-03-02T03:39:14;74.37;;;22.80;;
4074;SDS011;2052;53.522;9.806;2024-03-02T03:41:41;50.77;;;21.70;;
4074;SDS011;2052;53.522;9.806;2024-03-02T03:44:07;54.67;;;21.73;;
4074;SDS011;2052;53.522;9.806;2024-03-02T03:46:34;50.67;;;22.90;;
4074;SDS011;2052;53.522;9.806;2024-03-02T03:49:04;48.50;;;21.13;;
4074;SDS011;2052;53.522;9.806;2024-03-02T03:51:30;50.77;;;22.67;;
4074;SDS011;2052;53.522;9.806;2024-03-02T03:53:57;48.50;;;22.07;;
4074;SDS011;2052;53.522;9.806;2024-03-02T03:56:27;49.20;;;22.07;;
4074;SDS011;2052;53.522;9.806;2024-03-02T03:58:53;48.30;;;21.03;;
4074;SDS011;2052;53.522;9.806;2024-03-02T04:01:20;56.30;;;22.13;;
4074;SDS011;2052;53.522;9.806;2024-03-02T04:03:47;51.27;;;22.40;;
4074;SDS011;2052;53.522;9.806;2024-03-02T04:06:15;52.83;;;20.40;;
4074;SDS011;2052;53.522;9.806;2024-03-02T04:08:43;51.47;;;22.00;;
4074;SDS011;2052;53.522;9.806;2024-03-02T04:11:09;48.00;;;21.50;;
4074;SDS011;2052;53.522;9.806;2024-03-02T04:13:36;48.10;;;21.83;;
4074;SDS011;2052;53.522;9.806;2024-03-02T04:16:03;51.37;;;22.10;;
4074;SDS011;2052;53.522;9.806;2024-03-02T04:18:30;52.60;;;24.00;;
4074;SDS011;2052;53.522;9.806;2024-03-02T04:20:56;53.27;;;23.00;;
4074;SDS011;2052;53.522;9.806;2024-03-02T04:23:25;53.20;;;23.20;;
4074;SDS011;2052;53.522;9.806;2024-03-02T04:25:52;51.60;;;23.13;;
4074;SDS011;2052;53.522;9.806;2024-03-02T04:28:19;50.43;;;22.83;;
4074;SDS011;2052;53.522;9.806;2024-03-02T04:30:45;48.60;;;22.40;;
4074;SDS011;2052;53.522;9.806;2024-03-02T04:33:12;47.93;;;21.20;;
4074;SDS011;2052;53.522;9.806;2024-03-02T04:35:41;37.63;;;19.67;;
4074;SDS011;2052;53.522;9.806;2024-03-02T04:38:07;44.53;;;19.70;;
4074;SDS011;2052;53.522;9.806;2024-03-02T04:40:36;44.73;;;19.87;;
4074;SDS011;2052;53.522;9.806;2024-03-02T04:43:12;38.93;;;19.80;;
4074;SDS011;2052;53.522;9.806;2024-03-02T04:45:42;53.10;;;21.57;;
4074;SDS011;2052;53.522;9.806;2024-03-02T04:48:09;49.57;;;22.23;;
4074;SDS011;2052;53.522;9.806;2024-03-02T04:50:35;40.83;;;18.83;;
4074;SDS011;2052;53.522;9.806;2024-03-02T04:53:02;44.30;;;20.67;;
4074;SDS011;2052;53.522;9.806;2024-03-02T04:55:29;52.77;;;22.00;;
4074;SDS011;2052;53.522;9.806;2024-03-02T04:58:23;50.53;;;20.37;;
4074;SDS011;2052;53.522;9.806;2024-03-02T05:00:51;44.07;;;19.93;;
4074;SDS011;2052;53.522;9.806;2024-03-02T05:03:17;48.33;;;20.67;;
4074;SDS011;2052;53.522;9.806;2024-03-02T05:05:44;50.57;;;21.40;;
4074;SDS011;2052;53.522;9.806;2024-03-02T05:08:11;46.83;;;22.00;;
4074;SDS011;2052;53.522;9.806;2024-03-02T05:10:38;44.47;;;22.30;;
4074;SDS011;2052;53.522;9.806;2024-03-02T05:13:05;46.10;;;21.33;;
4074;SDS011;2052;53.522;9.806;2024-03-02T05:15:33;40.23;;;20.33;;
4074;SDS011;2052;53.522;9.806;2024-03-02T05:18:00;45.37;;;20.40;;
4074;SDS011;2052;53.522;9.806;2024-03-02T05:20:30;51.63;;;22.37;;
4074;SDS011;2052;53.522;9.806;2024-03-02T05:22:59;50.57;;;21.90;;
4074;SDS011;2052;53.522;9.806;2024-03-02T05:25:25;51.07;;;21.93;;
4074;SDS011;2052;53.522;9.806;2024-03-02T05:27:52;53.17;;;21.23;;
4074;SDS011;2052;53.522;9.806;2024-03-02T05:30:19;39.80;;;19.73;;
4074;SDS011;2052;53.522;9.806;2024-03-02T05:32:47;40.77;;;20.17;;
4074;SDS011;2052;53.522;9.806;2024-03-02T05:35:13;53.93;;;21.73;;
4074;SDS011;2052;53.522;9.806;2024-03-02T05:37:40;45.20;;;19.37;;
4074;SDS011;2052;53.522;9.806;2024-03-02T05:40:07;47.13;;;21.07;;
4074;SDS011;2052;53.522;9.806;2024-03-02T05:42:36;40.57;;;19.97;;
4074;SDS011;2052;53.522;9.806;2024-03-02T05:45:03;46.47;;;20.70;;
4074;SDS011;2052;53.522;9.806;2024-03-02T05:47:31;43.77;;;19.77;;
4074;SDS011;2052;53.522;9.806;2024-03-02T05:50:01;44.90;;;20.40;;
4074;SDS011;2052;53.522;9.806;2024-03-02T05:52:33;57.53;;;21.23;;
4074;SDS011;2052;53.522;9.806;2024-03-02T05:55:00;47.63;;;19.87;;
4074;SDS011;2052;53.522;9.806;2024-03-02T05:57:27;44.17;;;19.80;;
4074;SDS011;2052;53.522;9.806;2024-03-02T06:00:10;49.03;;;19.90;;
4074;SDS011;2052;53.522;9.806;2024-03-02T06:02:42;41.20;;;19.87;;
4074;SDS011;2052;53.522;9.806;2024-03-02T06:05:10;47.90;;;20.20;;
4074;SDS011;2052;53.522;9.806;2024-03-02T06:07:36;39.77;;;20.00;;
4074;SDS011;2052;53.522;9.806;2024-03-02T06:10:05;48.87;;;20.00;;
4074;SDS011;2052;53.522;9.806;2024-03-02T06:12:34;43.67;;;19.00;;
4074;SDS011;2052;53.522;9.806;2024-03-02T06:15:01;41.43;;;20.30;;
4074;SDS011;2052;53.522;9.806;2024-03-02T06:17:28;46.43;;;20.93;;
4074;SDS011;2052;53.522;9.806;2024-03-02T06:19:55;43.33;;;20.27;;
4074;SDS011;2052;53.522;9.806;2024-03-02T06:22:24;50.83;;;20.63;;
4074;SDS011;2052;53.522;9.806;2024-03-02T06:24:50;47.53;;;19.53;;
4074;SDS011;2052;53.522;9.806;2024-03-02T06:27:17;43.53;;;21.27;;
4074;SDS011;2052;53.522;9.806;2024-03-02T06:29:43;49.00;;;21.40;;
4074;SDS011;2052;53.522;9.806;2024-03-02T06:32:10;47.57;;;22.40;;
4074;SDS011;2052;53.522;9.806;2024-03-02T06:34:37;54.07;;;21.77;;
4074;SDS011;2052;53.522;9.806;2024-03-02T06:37:03;41.90;;;19.03;;
4074;SDS011;2052;53.522;9.806;2024-03-02T06:39:32;49.27;;;22.07;;
4074;SDS011;2052;53.522;9.806;2024-03-02T06:41:59;37.90;;;20.10;;
4074;SDS011;2052;53.522;9.806;2024-03-02T06:44:26;41.20;;;18.80;;
4074;SDS011;2052;53.522;9.806;2024-03-02T06:46:53;43.23;;;20.43;;
4074;SDS011;2052;53.522;9.806;2024-03-02T06:49:19;53.60;;;22.70;;
4074;SDS011;2052;53.522;9.806;2024-03-02T06:51:46;50.33;;;20.70;;
4074;SDS011;2052;53.522;9.806;2024-03-02T06:54:12;48.43;;;19.27;;
4074;SDS011;2052;53.522;9.806;2024-03-02T06:56:40;38.23;;;18.30;;
4074;SDS011;2052;53.522;9.806;2024-03-02T06:59:07;45.30;;;19.60;;
4074;SDS011;2052;53.522;9.806;2024-03-02T07:01:33;44.67;;;20.47;;
4074;SDS011;2052;53.522;9.806;2024-03-02T07:04:01;43.77;;;21.50;;
4074;SDS011;2052;53.522;9.806;2024-03-02T07:06:27;41.37;;;19.03;;
4074;SDS011;2052;53.522;9.806;2024-03-02T07:08:54;41.30;;;20.00;;
4074;SDS011;2052;53.522;9.806;2024-03-02T07:11:21;39.33;;;19.20;;
4074;SDS011;2052;53.522;9.806;2024-03-02T07:13:49;36.83;;;17.90;;
4074;SDS011;2052;53.522;9.806;2024-03-02T07:16:15;39.87;;;19.17;;
4074;SDS011;2052;53.522;9.806;2024-03-02T07:18:55;49.87;;;21.00;;
4074;SDS011;2052;53.522;9.806;2024-03-02T07:21:22;46.63;;;21.30;;
4074;SDS011;2052;53.522;9.806;2024-03-02T07:23:49;45.37;;;18.70;;
4074;SDS011;2052;53.522;9.806;2024-03-02T07:26:16;37.40;;;18.43;;
4074;SDS011;2052;53.522;9.806;2024-03-02T07:28:43;38.67;;;17.47;;
4074;SDS011;2052;53.522;9.806;2024-03-02T07:31:11;36.07;;;18.47;;
4074;SDS011;2052;53.522;9.806;2024-03-02T07:33:38;38.47;;;17.83;;
4074;SDS011;2052;53.522;9.806;2024-03-02T07:36:04;39.07;;;18.23;;
4074;SDS011;2052;53.522;9.806;2024-03-02T07:38:34;51.23;;;20.83;;
4074;SDS011;2052;53.522;9.806;2024-03-02T07:41:01;36.80;;;17.13;;
4074;SDS011;2052;53.522;9.806;2024-03-02T07:43:30;42.23;;;18.30;;
4074;SDS011;2052;53.522;9.806;2024-03-02T07:45:58;43.20;;;18.37;;
4074;SDS011;2052;53.522;9.806;2024-03-02T07:48:26;41.13;;;17.63;;
4074;SDS011;2052;53.522;9.806;2024-03-02T07:50:53;37.17;;;16.83;;
4074;SDS011;2052;53.522;9.806;2024-03-02T07:53:19;40.17;;;17.23;;
4074;SDS011;2052;53.522;9.806;2024-03-02T07:55:46;36.23;;;16.93;;
4074;SDS011;2052;53.522;9.806;2024-03-02T07:58:13;36.07;;;17.80;;
4074;SDS011;2052;53.522;9.806;2024-03-02T08:00:43;36.40;;;17.33;;
4074;SDS011;2052;53.522;9.806;2024-03-02T08:03:10;35.90;;;17.33;;
4074;SDS011;2052;53.522;9.806;2024-03-02T08:05:38;34.90;;;16.13;;
4074;SDS011;2052;53.522;9.806;2024-03-02T08:08:05;29.07;;;15.93;;
4074;SDS011;2052;53.522;9.806;2024-03-02T08:10:32;37.20;;;15.80;;
4074;SDS011;2052;53.522;9.806;2024-03-02T08:12:59;35.57;;;17.20;;
4074;SDS011;2052;53.522;9.806;2024-03-02T08:15:25;32.00;;;17.17;;
4074;SDS011;2052;53.522;9.806;2024-03-02T08:17:52;29.30;;;15.07;;
4074;SDS011;2052;53.522;9.806;2024-03-02T08:20:19;33.33;;;16.20;;
4074;SDS011;2052;53.522;9.806;2024-03-02T08:22:47;36.23;;;17.37;;
4074;SDS011;2052;53.522;9.806;2024-03-02T08:25:14;30.03;;;16.43;;
4074;SDS011;2052;53.522;9.806;2024-03-02T08:27:41;33.83;;;15.57;;
4074;SDS011;2052;53.522;9.806;2024-03-02T08:30:07;31.87;;;16.10;;
4074;SDS011;2052;53.522;9.806;2024-03-02T08:32:35;33.83;;;16.03;;
4074;SDS011;2052;53.522;9.806;2024-03-02T08:35:02;32.27;;;15.63;;
4074;SDS011;2052;53.522;9.806;2024-03-02T08:37:30;30.90;;;15.77;;
4074;SDS011;2052;53.522;9.806;2024-03-02T08:39:58;29.77;;;14.90;;
4074;SDS011;2052;53.522;9.806;2024-03-02T08:42:25;32.87;;;15.47;;
4074;SDS011;2052;53.522;9.806;2024-03-02T08:44:51;33.03;;;15.70;;
4074;SDS011;2052;53.522;9.806;2024-03-02T08:47:18;28.87;;;15.80;;
4074;SDS011;2052;53.522;9.806;2024-03-02T08:49:44;35.73;;;15.83;;
4074;SDS011;2052;53.522;9.806;2024-03-02T08:52:11;29.80;;;15.43;;
4074;SDS011;2052;53.522;9.806;2024-03-02T08:54:38;34.20;;;15.83;;
4074;SDS011;2052;53.522;9.806;2024-03-02T08:57:06;29.60;;;13.63;;
4074;SDS011;2052;53.522;9.806;2024-03-02T08:59:33;31.53;;;15.50;;
4074;SDS011;2052;53.522;9.806;2024-03-02T09:02:00;26.07;;;13.73;;
4074;SDS011;2052;53.522;9.806;2024-03-02T09:04:27;24.50;;;14.63;;
4074;SDS011;2052;53.522;9.806;2024-03-02T09:06:54;29.63;;;14.13;;
4074;SDS011;2052;53.522;9.806;2024-03-02T09:09:20;27.20;;;13.90;;
4074;SDS011;2052;53.522;9.806;2024-03-02T09:11:47;24.63;;;13.47;;
4074;SDS011;2052;53.522;9.806;2024-03-02T09:14:15;30.90;;;13.40;;
4074;SDS011;2052;53.522;9.806;2024-03-02T09:16:45;22.13;;;13.23;;
4074;SDS011;2052;53.522;9.806;2024-03-02T09:19:12;26.30;;;13.87;;
4074;SDS011;2052;53.522;9.806;2024-03-02T09:21:39;23.53;;;11.40;;
4074;SDS011;2052;53.522;9.806;2024-03-02T09:24:05;30.53;;;13.33;;
4074;SDS011;2052;53.522;9.806;2024-03-02T09:26:32;21.70;;;12.10;;
4074;SDS011;2052;53.522;9.806;2024-03-02T09:28:59;20.93;;;11.77;;
4074;SDS011;2052;53.522;9.806;2024-03-02T09:31:26;25.17;;;11.60;;
4074;SDS011;2052;53.522;9.806;2024-03-02T09:33:53;21.70;;;10.50;;
4074;SDS011;2052;53.522;9.806;2024-03-02T09:36:20;18.60;;;10.40;;
4074;SDS011;2052;53.522;9.806;2024-03-02T09:38:47;23.10;;;12.80;;
4074;SDS011;2052;53.522;9.806;2024-03-02T09:41:14;22.73;;;10.77;;
4074;SDS011;2052;53.522;9.806;2024-03-02T09:43:41;17.73;;;9.90;;
4074;SDS011;2052;53.522;9.806;2024-03-02T09:46:08;18.40;;;10.33;;
4074;SDS011;2052;53.522;9.806;2024-03-02T09:48:36;22.90;;;10.57;;
4074;SDS011;2052;53.522;9.806;2024-03-02T09:51:04;23.00;;;12.03;;
4074;SDS011;2052;53.522;9.806;2024-03-02T09:53:31;18.03;;;9.47;;
4074;SDS011;2052;53.522;9.806;2024-03-02T09:55:58;15.63;;;9.87;;
4074;SDS011;2052;53.522;9.806;2024-03-02T09:58:25;18.90;;;10.50;;
4074;SDS011;2052;53.522;9.806;2024-03-02T10:00:51;21.53;;;9.37;;
4074;SDS011;2052;53.522;9.806;2024-03-02T10:03:18;21.90;;;9.30;;
4074;SDS011;2052;53.522;9.806;2024-03-02T10:05:47;18.33;;;10.03;;
4074;SDS011;2052;53.522;9.806;2024-03-02T10:08:14;19.77;;;9.10;;
4074;SDS011;2052;53.522;9.806;2024-03-02T10:10:40;18.13;;;9.70;;
4074;SDS011;2052;53.522;9.806;2024-03-02T10:13:08;16.83;;;8.47;;
4074;SDS011;2052;53.522;9.806;2024-03-02T10:15:40;21.20;;;9.63;;
4074;SDS011;2052;53.522;9.806;2024-03-02T10:18:08;18.73;;;9.67;;
4074;SDS011;2052;53.522;9.806;2024-03-02T10:20:36;17.00;;;8.60;;
4074;SDS011;2052;53.522;9.806;2024-03-02T10:23:12;18.17;;;10.00;;
4074;SDS011;2052;53.522;9.806;2024-03-02T10:25:39;15.77;;;9.57;;
4074;SDS011;2052;53.522;9.806;2024-03-02T10:28:06;19.43;;;8.67;;
4074;SDS011;2052;53.522;9.806;2024-03-02T10:30:34;16.50;;;8.60;;
4074;SDS011;2052;53.522;9.806;2024-03-02T10:33:01;15.50;;;8.13;;
4074;SDS011;2052;53.522;9.806;2024-03-02T10:35:29;16.30;;;8.70;;
4074;SDS011;2052;53.522;9.806;2024-03-02T10:37:58;14.40;;;8.60;;
4074;SDS011;2052;53.522;9.806;2024-03-02T10:40:26;20.83;;;10.40;;
4074;SDS011;2052;53.522;9.806;2024-03-02T10:42:52;16.57;;;8.53;;
4074;SDS011;2052;53.522;9.806;2024-03-02T10:45:20;14.60;;;7.90;;
4074;SDS011;2052;53.522;9.806;2024-03-02T10:47:48;14.37;;;7.87;;
4074;SDS011;2052;53.522;9.806;2024-03-02T10:50:15;15.60;;;8.50;;
4074;SDS011;2052;53.522;9.806;2024-03-02T10:52:42;12.20;;;7.23;;
4074;SDS011;2052;53.522;9.806;2024-03-02T10:55:09;14.30;;;8.70;;
4074;SDS011;2052;53.522;9.806;2024-03-02T10:57:42;14.77;;;7.63;;
4074;SDS011;2052;53.522;9.806;2024-03-02T11:00:12;18.70;;;8.30;;
4074;SDS011;2052;53.522;9.806;2024-03-02T11:02:42;14.30;;;7.90;;
4074;SDS011;2052;53.522;9.806;2024-03-02T11:05:10;12.73;;;7.83;;
4074;SDS011;2052;53.522;9.806;2024-03-02T11:07:37;12.10;;;7.43;;
4074;SDS011;2052;53.522;9.806;2024-03-02T11:10:05;15.80;;;8.00;;
4074;SDS011;2052;53.522;9.806;2024-03-02T11:12:35;16.73;;;7.80;;
4074;SDS011;2052;53.522;9.806;2024-03-02T11:15:05;15.20;;;7.70;;
4074;SDS011;2052;53.522;9.806;2024-03-02T11:17:37;13.30;;;7.70;;
4074;SDS011;2052;53.522;9.806;2024-03-02T11:20:05;13.00;;;7.33;;
4074;SDS011;2052;53.522;9.806;2024-03-02T11:22:33;14.10;;;7.30;;
4074;SDS011;2052;53.522;9.806;2024-03-02T11:25:01;13.27;;;6.97;;
4074;SDS011;2052;53.522;9.806;2024-03-02T11:33:26;13.47;;;7.80;;
4074;SDS011;2052;53.522;9.806;2024-03-02T11:35:54;13.27;;;6.97;;
4074;SDS011;2052;53.522;9.806;2024-03-02T11:38:22;11.63;;;6.70;;
4074;SDS011;2052;53.522;9.806;2024-03-02T11:40:50;14.43;;;6.97;;
4074;SDS011;2052;53.522;9.806;2024-03-02T11:43:17;10.93;;;5.80;;
4074;SDS011;2052;53.522;9.806;2024-03-02T11:45:43;12.07;;;6.73;;
4074;SDS011;2052;53.522;9.806;2024-03-02T11:48:13;12.60;;;5.60;;
4074;SDS011;2052;53.522;9.806;2024-03-02T11:50:42;11.37;;;6.33;;
4074;SDS011;2052;53.522;9.806;2024-03-02T11:53:13;9.73;;;5.93;;
4074;SDS011;2052;53.522;9.806;2024-03-02T11:55:40;9.00;;;5.40;;
4074;SDS011;2052;53.522;9.806;2024-03-02T11:58:11;10.10;;;6.00;;
4074;SDS011;2052;53.522;9.806;2024-03-02T12:00:38;8.70;;;5.30;;
4074;SDS011;2052;53.522;9.806;2024-03-02T12:03:05;8.47;;;5.13;;
4074;SDS011;2052;53.522;9.806;2024-03-02T12:05:35;8.63;;;5.60;;
4074;SDS011;2052;53.522;9.806;2024-03-02T12:08:03;9.03;;;5.60;;
4074;SDS011;2052;53.522;9.806;2024-03-02T12:10:32;12.53;;;5.30;;
4074;SDS011;2052;53.522;9.806;2024-03-02T12:13:00;9.30;;;6.07;;
4074;SDS011;2052;53.522;9.806;2024-03-02T12:15:28;11.80;;;6.17;;
4074;SDS011;2052;53.522;9.806;2024-03-02T12:17:57;13.27;;;6.50;;
4074;SDS011;2052;53.522;9.806;2024-03-02T12:20:25;8.37;;;5.13;;
4074;SDS011;2052;53.522;9.806;2024-03-02T12:22:54;10.37;;;5.70;;
4074;SDS011;2052;53.522;9.806;2024-03-02T12:25:22;11.20;;;6.37;;
4074;SDS011;2052;53.522;9.806;2024-03-02T12:27:53;12.07;;;6.07;;
4074;SDS011;2052;53.522;9.806;2024-03-02T12:30:23;14.13;;;6.50;;
4074;SDS011;2052;53.522;9.806;2024-03-02T12:32:52;13.13;;;6.73;;
4074;SDS011;2052;53.522;9.806;2024-03-02T12:35:19;10.37;;;6.40;;
4074;SDS011;2052;53.522;9.806;2024-03-02T12:37:46;10.93;;;5.90;;
4074;SDS011;2052;53.522;9.806;2024-03-02T12:40:16;12.60;;;6.70;;
4074;SDS011;2052;53.522;9.806;2024-03-02T12:42:47;11.93;;;6.00;;
4074;SDS011;2052;53.522;9.806;2024-03-02T12:45:13;10.27;;;5.87;;
4074;SDS011;2052;53.522;9.806;2024-03-02T12:47:41;14.87;;;6.30;;
4074;SDS011;2052;53.522;9.806;2024-03-02T12:50:08;10.50;;;5.73;;
4074;SDS011;2052;53.522;9.806;2024-03-02T12:52:35;9.17;;;5.70;;
4074;SDS011;2052;53.522;9.806;2024-03-02T12:55:04;9.03;;;5.17;;
4074;SDS011;2052;53.522;9.806;2024-03-02T12:57:41;11.60;;;5.67;;
4074;SDS011;2052;53.522;9.806;2024-03-02T13:00:08;8.03;;;4.97;;
4074;SDS011;2052;53.522;9.806;2024-03-02T13:02:36;8.20;;;5.00;;
4074;SDS011;2052;53.522;9.806;2024-03-02T13:05:06;8.77;;;5.73;;
4074;SDS011;2052;53.522;9.806;2024-03-02T13:07:37;10.60;;;5.20;;
4074;SDS011;2052;53.522;9.806;2024-03-02T13:10:06;7.80;;;5.10;;
4074;SDS011;2052;53.522;9.806;2024-03-02T13:12:34;7.57;;;4.77;;
4074;SDS011;2052;53.522;9.806;2024-03-02T13:15:13;8.40;;;4.80;;
4074;SDS011;2052;53.522;9.806;2024-03-02T13:17:44;10.50;;;5.10;;
4074;SDS011;2052;53.522;9.806;2024-03-02T13:20:11;11.13;;;4.87;;
4074;SDS011;2052;53.522;9.806;2024-03-02T13:22:39;7.90;;;4.60;;
4074;SDS011;2052;53.522;9.806;2024-03-02T13:25:05;7.60;;;5.00;;
4074;SDS011;2052;53.522;9.806;2024-03-02T13:27:35;8.30;;;5.67;;
4074;SDS011;2052;53.522;9.806;2024-03-02T13:30:02;9.13;;;5.57;;
4074;SDS011;2052;53.522;9.806;2024-03-02T13:32:33;7.10;;;4.50;;
4074;SDS011;2052;53.522;9.806;2024-03-02T13:34:59;14.67;;;6.20;;
4074;SDS011;2052;53.522;9.806;2024-03-02T13:37:26;12.27;;;6.10;;
4074;SDS011;2052;53.522;9.806;2024-03-02T13:39:52;10.63;;;5.87;;
4074;SDS011;2052;53.522;9.806;2024-03-02T13:42:19;10.47;;;5.90;;
4074;SDS011;2052;53.522;9.806;2024-03-02T13:44:46;9.40;;;6.77;;
4074;SDS011;2052;53.522;9.806;2024-03-02T13:47:14;9.20;;;5.60;;
4074;SDS011;2052;53.522;9.806;2024-03-02T13:49:42;8.70;;;5.70;;
4074;SDS011;2052;53.522;9.806;2024-03-02T13:52:11;7.57;;;5.03;;
4074;SDS011;2052;53.522;9.806;2024-03-02T13:54:38;11.90;;;5.83;;
4074;SDS011;2052;53.522;9.806;2024-03-02T13:57:05;10.00;;;5.60;;
4074;SDS011;2052;53.522;9.806;2024-03-02T13:59:33;9.30;;;5.67;;
4074;SDS011;2052;53.522;9.806;2024-03-02T14:02:07;7.57;;;5.50;;
4074;SDS011;2052;53.522;9.806;2024-03-02T14:04:34;11.17;;;5.40;;
4074;SDS011;2052;53.522;9.806;2024-03-02T14:07:03;11.80;;;5.60;;
4074;SDS011;2052;53.522;9.806;2024-03-02T14:09:32;9.83;;;5.27;;
4074;SDS011;2052;53.522;9.806;2024-03-02T14:11:59;11.57;;;5.53;;
4074;SDS011;2052;53.522;9.806;2024-03-02T14:14:26;11.03;;;5.70;;
4074;SDS011;2052;53.522;9.806;2024-03-02T14:16:53;9.43;;;5.43;;
4074;SDS011;2052;53.522;9.806;2024-03-02T14:19:21;11.03;;;5.33;;
4074;SDS011;2052;53.522;9.806;2024-03-02T14:21:47;10.10;;;5.67;;
4074;SDS011;2052;53.522;9.806;2024-03-02T14:24:16;9.00;;;5.67;;
4074;SDS011;2052;53.522;9.806;2024-03-02T14:26:43;11.00;;;5.50;;
4074;SDS011;2052;53.522;9.806;2024-03-02T14:29:10;10.53;;;5.80;;
4074;SDS011;2052;53.522;9.806;2024-03-02T14:31:37;13.27;;;6.63;;
4074;SDS011;2052;53.522;9.806;2024-03-02T14:34:06;9.70;;;5.13;;
4074;SDS011;2052;53.522;9.806;2024-03-02T14:36:32;8.53;;;5.13;;
4074;SDS011;2052;53.522;9.806;2024-03-02T14:38:59;8.87;;;4.87;;
4074;SDS011;2052;53.522;9.806;2024-03-02T14:41:27;7.13;;;5.13;;
4074;SDS011;2052;53.522;9.806;2024-03-02T14:43:55;7.30;;;5.40;;
4074;SDS011;2052;53.522;9.806;2024-03-02T14:46:22;6.63;;;4.70;;
4074;SDS011;2052;53.522;9.806;2024-03-02T14:48:50;8.77;;;5.03;;
4074;SDS011;2052;53.522;9.806;2024-03-02T14:51:17;8.57;;;4.70;;
4074;SDS011;2052;53.522;9.806;2024-03-02T14:53:43;9.20;;;5.20;;
4074;SDS011;2052;53.522;9.806;2024-03-02T14:56:10;8.70;;;5.53;;
4074;SDS011;2052;53.522;9.806;2024-03-02T14:58:39;8.40;;;5.23;;
4074;SDS011;2052;53.522;9.806;2024-03-02T15:01:06;7.30;;;4.90;;
4074;SDS011;2052;53.522;9.806;2024-03-02T15:03:34;11.37;;;6.07;;
4074;SDS011;2052;53.522;9.806;2024-03-02T15:06:01;8.20;;;5.17;;
4074;SDS011;2052;53.522;9.806;2024-03-02T15:08:30;7.60;;;4.90;;